sensor_id;sensor_type;location;lat;lon;timestamp;P1;durP1;ratioP1;P2;durP2;ratioP2
44358;SDS011;30077;52.474;13.326;2022-08-26T00:02:20;21.00;;;13.65;;
44358;SDS011;30077;52.474;13.326;2022-08-26T00:07:20;24.73;;;13.52;;
44358;SDS011;30077;52.474;13.326;2022-08-26T00:12:20;19.17;;;13.18;;
44358;SDS011;30077;52.474;13.326;2022-08-26T00:17:20;29.23;;;14.15;;
44358;SDS011;30077;52.474;13.326;2022-08-26T00:22:21;26.63;;;13.85;;
44358;SDS011;30077;52.474;13.326;2022-08-26T00:27:21;24.17;;;13.15;;
44358;SDS011;30077;52.474;13.326;2022-08-26T00:32:21;21.70;;;12.82;;
44358;SDS011;30077;52.474;13.326;2022-08-26T00:37:22;24.23;;;12.98;;
44358;SDS011;30077;52.474;13.326;2022-08-26T00:42:22;26.63;;;13.88;;
44358;SDS011;30077;52.474;13.326;2022-08-26T00:47:27;30.05;;;13.45;;
44358;SDS011;30077;52.474;13.326;2022-08-26T00:52:32;35.97;;;14.57;;
44358;SDS011;30077;52.474;13.326;2022-08-26T00:57:33;33.22;;;14.50;;
44358;SDS011;30077;52.474;13.326;2022-08-26T01:02:35;28.98;;;13.20;;
44358;SDS011;30077;52.474;13.326;2022-08-26T01:07:36;34.35;;;14.50;;
44358;SDS011;30077;52.474;13.326;2022-08-26T01:12:38;30.48;;;13.50;;
44358;SDS011;30077;52.474;13.326;2022-08-26T01:17:41;26.30;;;14.00;;
44358;SDS011;30077;52.474;13.326;2022-08-26T01:22:44;28.13;;;13.83;;
44358;SDS011;30077;52.474;13.326;2022-08-26T01:27:53;28.52;;;13.63;;
44358;SDS011;30077;52.474;13.326;2022-08-26T01:32:56;23.85;;;12.55;;
44358;SDS011;30077;52.474;13.326;2022-08-26T01:37:59;32.40;;;14.20;;
44358;SDS011;30077;52.474;13.326;2022-08-26T01:43:01;24.83;;;14.10;;
44358;SDS011;30077;52.474;13.326;2022-08-26T01:48:06;26.60;;;13.38;;
44358;SDS011;30077;52.474;13.326;2022-08-26T01:53:10;28.85;;;13.30;;
44358;SDS011;30077;52.474;13.326;2022-08-26T01:58:15;29.05;;;14.23;;
44358;SDS011;30077;52.474;13.326;2022-08-26T02:03:19;27.55;;;14.68;;
44358;SDS011;30077;52.474;13.326;2022-08-26T02:13:43;30.95;;;14.93;;
44358;SDS011;30077;52.474;13.326;2022-08-26T02:18:51;26.23;;;14.38;;
44358;SDS011;30077;52.474;13.326;2022-08-26T02:23:52;32.35;;;15.82;;
44358;SDS011;30077;52.474;13.326;2022-08-26T02:29:08;34.88;;;14.52;;
44358;SDS011;30077;52.474;13.326;2022-08-26T02:34:18;33.85;;;16.20;;
44358;SDS011;30077;52.474;13.326;2022-08-26T02:39:21;23.55;;;13.13;;
44358;SDS011;30077;52.474;13.326;2022-08-26T02:44:22;28.95;;;14.80;;
44358;SDS011;30077;52.474;13.326;2022-08-26T02:49:23;29.60;;;14.52;;
44358;SDS011;30077;52.474;13.326;2022-08-26T02:54:23;26.85;;;14.88;;
44358;SDS011;30077;52.474;13.326;2022-08-26T02:59:23;30.42;;;15.95;;
44358;SDS011;30077;52.474;13.326;2022-08-26T03:04:24;25.48;;;14.52;;
44358;SDS011;30077;52.474;13.326;2022-08-26T03:09:24;31.37;;;15.77;;
44358;SDS011;30077;52.474;13.326;2022-08-26T03:14:24;22.92;;;13.98;;
44358;SDS011;30077;52.474;13.326;2022-08-26T03:19:25;28.70;;;15.40;;
44358;SDS011;30077;52.474;13.326;2022-08-26T03:24:25;29.80;;;16.63;;
44358;SDS011;30077;52.474;13.326;2022-08-26T03:29:25;38.40;;;18.27;;
44358;SDS011;30077;52.474;13.326;2022-08-26T03:34:44;36.53;;;17.92;;
44358;SDS011;30077;52.474;13.326;2022-08-26T03:39:45;31.67;;;16.42;;
44358;SDS011;30077;52.474;13.326;2022-08-26T03:44:46;26.42;;;15.82;;
44358;SDS011;30077;52.474;13.326;2022-08-26T03:49:46;29.30;;;16.10;;
44358;SDS011;30077;52.474;13.326;2022-08-26T03:54:47;34.53;;;17.60;;
44358;SDS011;30077;52.474;13.326;2022-08-26T03:59:47;29.30;;;15.73;;
44358;SDS011;30077;52.474;13.326;2022-08-26T04:04:48;38.38;;;17.15;;
44358;SDS011;30077;52.474;13.326;2022-08-26T04:09:48;33.95;;;16.88;;
44358;SDS011;30077;52.474;13.326;2022-08-26T04:14:48;43.43;;;17.37;;
44358;SDS011;30077;52.474;13.326;2022-08-26T04:19:49;34.58;;;17.30;;
44358;SDS011;30077;52.474;13.326;2022-08-26T04:24:49;30.20;;;16.35;;
44358;SDS011;30077;52.474;13.326;2022-08-26T04:29:49;34.88;;;17.10;;
44358;SDS011;30077;52.474;13.326;2022-08-26T04:34:50;29.30;;;16.55;;
44358;SDS011;30077;52.474;13.326;2022-08-26T04:39:51;32.67;;;16.23;;
44358;SDS011;30077;52.474;13.326;2022-08-26T04:44:51;31.75;;;17.23;;
44358;SDS011;30077;52.474;13.326;2022-08-26T04:49:55;39.75;;;17.30;;
44358;SDS011;30077;52.474;13.326;2022-08-26T04:54:56;29.77;;;16.67;;
44358;SDS011;30077;52.474;13.326;2022-08-26T04:59:56;25.75;;;16.83;;
44358;SDS011;30077;52.474;13.326;2022-08-26T05:04:56;32.78;;;17.27;;
44358;SDS011;30077;52.474;13.326;2022-08-26T05:09:57;34.20;;;17.25;;
44358;SDS011;30077;52.474;13.326;2022-08-26T05:14:57;34.95;;;16.73;;
44358;SDS011;30077;52.474;13.326;2022-08-26T05:19:58;34.00;;;18.17;;
44358;SDS011;30077;52.474;13.326;2022-08-26T05:24:59;29.70;;;16.80;;
44358;SDS011;30077;52.474;13.326;2022-08-26T05:29:59;37.07;;;16.43;;
44358;SDS011;30077;52.474;13.326;2022-08-26T05:35:00;29.27;;;16.27;;
44358;SDS011;30077;52.474;13.326;2022-08-26T05:40:02;27.42;;;16.75;;
44358;SDS011;30077;52.474;13.326;2022-08-26T05:45:03;32.38;;;16.10;;
44358;SDS011;30077;52.474;13.326;2022-08-26T05:50:04;37.47;;;16.83;;
44358;SDS011;30077;52.474;13.326;2022-08-26T05:55:05;28.55;;;15.98;;
44358;SDS011;30077;52.474;13.326;2022-08-26T06:00:05;38.28;;;16.17;;
44358;SDS011;30077;52.474;13.326;2022-08-26T06:05:06;35.42;;;16.73;;
44358;SDS011;30077;52.474;13.326;2022-08-26T06:10:10;30.92;;;15.98;;
44358;SDS011;30077;52.474;13.326;2022-08-26T06:15:12;33.47;;;14.95;;
44358;SDS011;30077;52.474;13.326;2022-08-26T06:20:13;34.60;;;16.13;;
44358;SDS011;30077;52.474;13.326;2022-08-26T06:25:14;36.75;;;15.98;;
44358;SDS011;30077;52.474;13.326;2022-08-26T06:30:37;33.53;;;15.77;;
44358;SDS011;30077;52.474;13.326;2022-08-26T06:35:39;30.55;;;14.25;;
44358;SDS011;30077;52.474;13.326;2022-08-26T06:40:42;39.43;;;16.23;;
44358;SDS011;30077;52.474;13.326;2022-08-26T06:45:44;39.08;;;15.32;;
44358;SDS011;30077;52.474;13.326;2022-08-26T06:50:45;40.95;;;16.38;;
44358;SDS011;30077;52.474;13.326;2022-08-26T06:55:45;31.65;;;14.07;;
44358;SDS011;30077;52.474;13.326;2022-08-26T07:00:46;35.38;;;14.55;;
44358;SDS011;30077;52.474;13.326;2022-08-26T07:05:46;37.23;;;15.87;;
44358;SDS011;30077;52.474;13.326;2022-08-26T07:10:47;36.78;;;15.20;;
44358;SDS011;30077;52.474;13.326;2022-08-26T07:15:47;25.25;;;14.35;;
44358;SDS011;30077;52.474;13.326;2022-08-26T07:20:48;28.45;;;12.93;;
44358;SDS011;30077;52.474;13.326;2022-08-26T07:25:48;39.85;;;13.95;;
44358;SDS011;30077;52.474;13.326;2022-08-26T07:30:48;33.65;;;14.82;;
44358;SDS011;30077;52.474;13.326;2022-08-26T07:35:49;28.17;;;13.32;;
44358;SDS011;30077;52.474;13.326;2022-08-26T07:40:49;30.40;;;13.43;;
44358;SDS011;30077;52.474;13.326;2022-08-26T07:45:50;31.27;;;12.83;;
44358;SDS011;30077;52.474;13.326;2022-08-26T07:50:50;25.70;;;11.97;;
44358;SDS011;30077;52.474;13.326;2022-08-26T07:55:52;27.95;;;12.73;;
44358;SDS011;30077;52.474;13.326;2022-08-26T08:00:53;28.75;;;11.40;;
44358;SDS011;30077;52.474;13.326;2022-08-26T08:05:53;25.57;;;11.80;;
44358;SDS011;30077;52.474;13.326;2022-08-26T08:10:53;27.65;;;13.27;;
44358;SDS011;30077;52.474;13.326;2022-08-26T08:15:54;33.30;;;13.10;;
44358;SDS011;30077;52.474;13.326;2022-08-26T08:20:54;26.95;;;13.40;;
44358;SDS011;30077;52.474;13.326;2022-08-26T08:26:06;31.80;;;12.80;;
44358;SDS011;30077;52.474;13.326;2022-08-26T08:31:08;29.13;;;13.35;;
44358;SDS011;30077;52.474;13.326;2022-08-26T08:36:09;30.30;;;11.75;;
44358;SDS011;30077;52.474;13.326;2022-08-26T08:41:26;36.25;;;11.63;;
44358;SDS011;30077;52.474;13.326;2022-08-26T08:46:37;27.67;;;11.05;;
44358;SDS011;30077;52.474;13.326;2022-08-26T08:51:44;31.50;;;11.80;;
44358;SDS011;30077;52.474;13.326;2022-08-26T08:56:50;38.03;;;11.68;;
44358;SDS011;30077;52.474;13.326;2022-08-26T09:07:38;38.42;;;9.95;;
44358;SDS011;30077;52.474;13.326;2022-08-26T09:12:44;28.38;;;9.90;;
44358;SDS011;30077;52.474;13.326;2022-08-26T09:17:55;31.67;;;10.65;;
44358;SDS011;30077;52.474;13.326;2022-08-26T09:23:09;43.00;;;11.75;;
44358;SDS011;30077;52.474;13.326;2022-08-26T09:28:11;40.63;;;11.50;;
44358;SDS011;30077;52.474;13.326;2022-08-26T09:33:16;39.30;;;11.57;;
44358;SDS011;30077;52.474;13.326;2022-08-26T09:38:22;35.95;;;11.02;;
44358;SDS011;30077;52.474;13.326;2022-08-26T09:43:25;35.50;;;10.35;;
44358;SDS011;30077;52.474;13.326;2022-08-26T09:48:29;36.83;;;10.38;;
44358;SDS011;30077;52.474;13.326;2022-08-26T09:53:32;31.02;;;9.85;;
44358;SDS011;30077;52.474;13.326;2022-08-26T09:58:39;31.30;;;9.05;;
44358;SDS011;30077;52.474;13.326;2022-08-26T10:03:42;28.13;;;9.23;;
44358;SDS011;30077;52.474;13.326;2022-08-26T10:08:44;34.90;;;9.20;;
44358;SDS011;30077;52.474;13.326;2022-08-26T10:13:50;36.45;;;11.02;;
44358;SDS011;30077;52.474;13.326;2022-08-26T10:19:08;34.70;;;9.90;;
44358;SDS011;30077;52.474;13.326;2022-08-26T10:24:14;40.63;;;10.57;;
44358;SDS011;30077;52.474;13.326;2022-08-26T10:29:24;35.55;;;10.20;;
44358;SDS011;30077;52.474;13.326;2022-08-26T10:34:33;33.97;;;10.88;;
44358;SDS011;30077;52.474;13.326;2022-08-26T10:39:56;29.20;;;10.27;;
44358;SDS011;30077;52.474;13.326;2022-08-26T10:45:03;24.00;;;9.73;;
44358;SDS011;30077;52.474;13.326;2022-08-26T10:50:06;28.60;;;10.43;;
44358;SDS011;30077;52.474;13.326;2022-08-26T10:55:15;28.30;;;10.95;;
44358;SDS011;30077;52.474;13.326;2022-08-26T11:00:33;24.23;;;9.35;;
44358;SDS011;30077;52.474;13.326;2022-08-26T11:16:40;39.55;;;11.18;;
44358;SDS011;30077;52.474;13.326;2022-08-26T11:21:46;32.33;;;11.40;;
44358;SDS011;30077;52.474;13.326;2022-08-26T11:26:48;19.92;;;9.02;;
44358;SDS011;30077;52.474;13.326;2022-08-26T11:36:55;26.45;;;9.93;;
44358;SDS011;30077;52.474;13.326;2022-08-26T11:41:58;36.35;;;9.77;;
44358;SDS011;30077;52.474;13.326;2022-08-26T11:47:14;20.88;;;5.90;;
44358;SDS011;30077;52.474;13.326;2022-08-26T11:52:23;10.85;;;5.05;;
44358;SDS011;30077;52.474;13.326;2022-08-26T11:57:24;13.98;;;5.38;;
44358;SDS011;30077;52.474;13.326;2022-08-26T12:02:25;8.80;;;5.25;;
44358;SDS011;30077;52.474;13.326;2022-08-26T12:07:27;19.63;;;5.50;;
44358;SDS011;30077;52.474;13.326;2022-08-26T12:12:29;11.65;;;5.60;;
44358;SDS011;30077;52.474;13.326;2022-08-26T12:17:31;8.68;;;4.90;;
44358;SDS011;30077;52.474;13.326;2022-08-26T12:22:32;10.15;;;4.85;;
44358;SDS011;30077;52.474;13.326;2022-08-26T12:27:35;9.00;;;5.05;;
44358;SDS011;30077;52.474;13.326;2022-08-26T12:32:43;11.68;;;5.60;;
44358;SDS011;30077;52.474;13.326;2022-08-26T12:37:45;12.45;;;6.45;;
44358;SDS011;30077;52.474;13.326;2022-08-26T12:42:49;8.95;;;5.63;;
44358;SDS011;30077;52.474;13.326;2022-08-26T12:47:52;15.20;;;6.20;;
44358;SDS011;30077;52.474;13.326;2022-08-26T12:52:56;11.85;;;5.85;;
44358;SDS011;30077;52.474;13.326;2022-08-26T13:03:34;11.73;;;5.47;;
44358;SDS011;30077;52.474;13.326;2022-08-26T13:08:48;10.45;;;6.70;;
44358;SDS011;30077;52.474;13.326;2022-08-26T13:14:00;17.20;;;9.20;;
44358;SDS011;30077;52.474;13.326;2022-08-26T13:19:03;20.23;;;10.18;;
44358;SDS011;30077;52.474;13.326;2022-08-26T13:24:07;23.50;;;11.77;;
44358;SDS011;30077;52.474;13.326;2022-08-26T13:29:11;25.40;;;12.38;;
44358;SDS011;30077;52.474;13.326;2022-08-26T13:34:16;23.42;;;14.70;;
44358;SDS011;30077;52.474;13.326;2022-08-26T13:39:19;23.65;;;14.25;;
44358;SDS011;30077;52.474;13.326;2022-08-26T13:44:20;24.17;;;15.02;;
44358;SDS011;30077;52.474;13.326;2022-08-26T13:49:20;18.27;;;13.18;;
44358;SDS011;30077;52.474;13.326;2022-08-26T13:54:21;20.92;;;12.27;;
44358;SDS011;30077;52.474;13.326;2022-08-26T13:59:21;19.00;;;13.85;;
44358;SDS011;30077;52.474;13.326;2022-08-26T14:04:21;23.52;;;14.05;;
44358;SDS011;30077;52.474;13.326;2022-08-26T14:09:22;23.27;;;15.10;;
44358;SDS011;30077;52.474;13.326;2022-08-26T14:14:22;17.48;;;12.65;;
44358;SDS011;30077;52.474;13.326;2022-08-26T14:19:23;19.38;;;15.38;;
44358;SDS011;30077;52.474;13.326;2022-08-26T14:24:24;20.42;;;12.45;;
44358;SDS011;30077;52.474;13.326;2022-08-26T14:29:24;30.42;;;13.85;;
44358;SDS011;30077;52.474;13.326;2022-08-26T14:34:25;26.85;;;12.68;;
44358;SDS011;30077;52.474;13.326;2022-08-26T14:39:25;28.90;;;15.53;;
44358;SDS011;30077;52.474;13.326;2022-08-26T14:44:26;26.13;;;15.02;;
44358;SDS011;30077;52.474;13.326;2022-08-26T14:49:30;32.08;;;16.00;;
44358;SDS011;30077;52.474;13.326;2022-08-26T14:54:30;23.77;;;14.33;;
44358;SDS011;30077;52.474;13.326;2022-08-26T14:59:32;20.80;;;13.80;;
44358;SDS011;30077;52.474;13.326;2022-08-26T15:04:37;24.30;;;16.55;;
44358;SDS011;30077;52.474;13.326;2022-08-26T15:09:38;24.00;;;15.30;;
44358;SDS011;30077;52.474;13.326;2022-08-26T15:14:38;19.20;;;13.70;;
44358;SDS011;30077;52.474;13.326;2022-08-26T15:19:38;18.30;;;10.93;;
44358;SDS011;30077;52.474;13.326;2022-08-26T15:24:39;20.10;;;12.43;;
44358;SDS011;30077;52.474;13.326;2022-08-26T15:29:39;18.95;;;12.48;;
44358;SDS011;30077;52.474;13.326;2022-08-26T15:34:40;28.38;;;14.20;;
44358;SDS011;30077;52.474;13.326;2022-08-26T15:39:40;19.65;;;13.80;;
44358;SDS011;30077;52.474;13.326;2022-08-26T15:44:41;21.27;;;13.85;;
44358;SDS011;30077;52.474;13.326;2022-08-26T15:49:42;22.70;;;14.67;;
44358;SDS011;30077;52.474;13.326;2022-08-26T15:54:42;23.20;;;15.48;;
44358;SDS011;30077;52.474;13.326;2022-08-26T15:59:43;21.70;;;15.17;;
44358;SDS011;30077;52.474;13.326;2022-08-26T16:04:43;19.73;;;14.43;;
44358;SDS011;30077;52.474;13.326;2022-08-26T16:09:43;25.02;;;16.38;;
44358;SDS011;30077;52.474;13.326;2022-08-26T16:14:43;24.98;;;17.15;;
44358;SDS011;30077;52.474;13.326;2022-08-26T16:19:44;24.63;;;18.38;;
44358;SDS011;30077;52.474;13.326;2022-08-26T16:24:44;25.73;;;17.98;;
44358;SDS011;30077;52.474;13.326;2022-08-26T16:29:45;25.25;;;17.90;;
44358;SDS011;30077;52.474;13.326;2022-08-26T16:34:45;24.15;;;17.13;;
44358;SDS011;30077;52.474;13.326;2022-08-26T16:39:46;22.05;;;17.13;;
44358;SDS011;30077;52.474;13.326;2022-08-26T16:44:46;21.08;;;17.33;;
44358;SDS011;30077;52.474;13.326;2022-08-26T16:49:46;27.77;;;20.35;;
44358;SDS011;30077;52.474;13.326;2022-08-26T16:54:47;23.95;;;18.55;;
44358;SDS011;30077;52.474;13.326;2022-08-26T16:59:48;36.53;;;28.35;;
44358;SDS011;30077;52.474;13.326;2022-08-26T17:04:48;25.23;;;19.67;;
44358;SDS011;30077;52.474;13.326;2022-08-26T17:09:49;26.38;;;20.90;;
44358;SDS011;30077;52.474;13.326;2022-08-26T17:14:50;27.00;;;20.83;;
44358;SDS011;30077;52.474;13.326;2022-08-26T17:19:50;29.40;;;21.02;;
44358;SDS011;30077;52.474;13.326;2022-08-26T17:24:50;24.10;;;18.55;;
44358;SDS011;30077;52.474;13.326;2022-08-26T17:29:51;24.27;;;18.85;;
44358;SDS011;30077;52.474;13.326;2022-08-26T17:34:51;29.77;;;20.73;;
44358;SDS011;30077;52.474;13.326;2022-08-26T17:39:51;40.20;;;30.50;;
44358;SDS011;30077;52.474;13.326;2022-08-26T17:44:52;27.65;;;23.17;;
44358;SDS011;30077;52.474;13.326;2022-08-26T17:49:52;35.78;;;23.50;;
44358;SDS011;30077;52.474;13.326;2022-08-26T17:54:53;33.28;;;22.45;;
44358;SDS011;30077;52.474;13.326;2022-08-26T17:59:55;31.10;;;23.85;;
44358;SDS011;30077;52.474;13.326;2022-08-26T18:04:56;29.30;;;22.25;;
44358;SDS011;30077;52.474;13.326;2022-08-26T18:09:56;30.58;;;24.02;;
44358;SDS011;30077;52.474;13.326;2022-08-26T18:14:57;33.17;;;25.63;;
44358;SDS011;30077;52.474;13.326;2022-08-26T18:19:58;34.25;;;25.13;;
44358;SDS011;30077;52.474;13.326;2022-08-26T18:24:59;30.48;;;24.70;;
44358;SDS011;30077;52.474;13.326;2022-08-26T18:30:06;38.50;;;26.77;;
44358;SDS011;30077;52.474;13.326;2022-08-26T18:35:09;34.25;;;25.67;;
44358;SDS011;30077;52.474;13.326;2022-08-26T18:40:12;35.15;;;26.13;;
44358;SDS011;30077;52.474;13.326;2022-08-26T18:45:15;40.67;;;29.42;;
44358;SDS011;30077;52.474;13.326;2022-08-26T18:50:16;42.63;;;32.03;;
44358;SDS011;30077;52.474;13.326;2022-08-26T18:55:17;44.63;;;31.17;;
44358;SDS011;30077;52.474;13.326;2022-08-26T19:00:17;42.42;;;31.60;;
44358;SDS011;30077;52.474;13.326;2022-08-26T19:05:17;47.50;;;31.52;;
44358;SDS011;30077;52.474;13.326;2022-08-26T19:10:18;39.35;;;28.20;;
44358;SDS011;30077;52.474;13.326;2022-08-26T19:15:19;35.15;;;25.80;;
44358;SDS011;30077;52.474;13.326;2022-08-26T19:20:19;32.30;;;25.33;;
44358;SDS011;30077;52.474;13.326;2022-08-26T19:25:20;32.75;;;25.73;;
44358;SDS011;30077;52.474;13.326;2022-08-26T19:30:20;36.97;;;28.13;;
44358;SDS011;30077;52.474;13.326;2022-08-26T19:35:20;38.75;;;29.55;;
44358;SDS011;30077;52.474;13.326;2022-08-26T19:40:21;36.65;;;27.02;;
44358;SDS011;30077;52.474;13.326;2022-08-26T19:45:22;35.28;;;26.67;;
44358;SDS011;30077;52.474;13.326;2022-08-26T19:50:25;35.05;;;24.63;;
44358;SDS011;30077;52.474;13.326;2022-08-26T19:55:29;38.35;;;27.75;;
44358;SDS011;30077;52.474;13.326;2022-08-26T20:00:32;39.38;;;28.92;;
44358;SDS011;30077;52.474;13.326;2022-08-26T20:05:38;35.90;;;27.10;;
44358;SDS011;30077;52.474;13.326;2022-08-26T20:10:39;44.95;;;30.42;;
44358;SDS011;30077;52.474;13.326;2022-08-26T20:15:40;35.97;;;27.38;;
44358;SDS011;30077;52.474;13.326;2022-08-26T20:20:41;33.08;;;26.27;;
44358;SDS011;30077;52.474;13.326;2022-08-26T20:26:00;33.00;;;23.60;;
44358;SDS011;30077;52.474;13.326;2022-08-26T20:31:01;28.88;;;20.25;;
44358;SDS011;30077;52.474;13.326;2022-08-26T20:36:02;28.95;;;21.10;;
44358;SDS011;30077;52.474;13.326;2022-08-26T20:41:03;26.70;;;19.67;;
44358;SDS011;30077;52.474;13.326;2022-08-26T20:46:05;21.25;;;18.40;;
44358;SDS011;30077;52.474;13.326;2022-08-26T20:51:07;25.20;;;19.35;;
44358;SDS011;30077;52.474;13.326;2022-08-26T20:56:08;21.45;;;17.90;;
44358;SDS011;30077;52.474;13.326;2022-08-26T21:01:15;22.00;;;18.25;;
44358;SDS011;30077;52.474;13.326;2022-08-26T21:06:18;38.33;;;27.35;;
44358;SDS011;30077;52.474;13.326;2022-08-26T21:11:19;23.20;;;18.33;;
44358;SDS011;30077;52.474;13.326;2022-08-26T21:16:21;23.43;;;20.13;;
44358;SDS011;30077;52.474;13.326;2022-08-26T21:21:21;24.13;;;19.38;;
44358;SDS011;30077;52.474;13.326;2022-08-26T21:26:22;23.65;;;19.02;;
44358;SDS011;30077;52.474;13.326;2022-08-26T21:31:23;25.88;;;20.90;;
44358;SDS011;30077;52.474;13.326;2022-08-26T21:36:24;25.98;;;21.08;;
44358;SDS011;30077;52.474;13.326;2022-08-26T21:41:25;21.60;;;19.30;;
44358;SDS011;30077;52.474;13.326;2022-08-26T21:46:27;27.33;;;20.42;;
44358;SDS011;30077;52.474;13.326;2022-08-26T21:51:33;21.70;;;18.50;;
44358;SDS011;30077;52.474;13.326;2022-08-26T21:56:36;23.52;;;17.85;;
44358;SDS011;30077;52.474;13.326;2022-08-26T22:01:40;21.73;;;18.88;;
44358;SDS011;30077;52.474;13.326;2022-08-26T22:06:43;22.23;;;18.30;;
44358;SDS011;30077;52.474;13.326;2022-08-26T22:11:45;22.30;;;16.83;;
44358;SDS011;30077;52.474;13.326;2022-08-26T22:16:46;19.40;;;17.30;;
44358;SDS011;30077;52.474;13.326;2022-08-26T22:21:47;23.35;;;17.80;;
44358;SDS011;30077;52.474;13.326;2022-08-26T22:26:49;20.30;;;18.10;;
44358;SDS011;30077;52.474;13.326;2022-08-26T22:31:50;26.77;;;19.95;;
44358;SDS011;30077;52.474;13.326;2022-08-26T22:36:51;27.33;;;20.35;;
44358;SDS011;30077;52.474;13.326;2022-08-26T22:41:53;24.87;;;20.33;;
44358;SDS011;30077;52.474;13.326;2022-08-26T22:46:54;24.98;;;18.95;;
44358;SDS011;30077;52.474;13.326;2022-08-26T22:51:54;23.15;;;17.33;;
44358;SDS011;30077;52.474;13.326;2022-08-26T22:56:55;21.25;;;18.13;;
44358;SDS011;30077;52.474;13.326;2022-08-26T23:01:55;22.55;;;16.88;;
44358;SDS011;30077;52.474;13.326;2022-08-26T23:06:56;22.05;;;16.60;;
44358;SDS011;30077;52.474;13.326;2022-08-26T23:11:56;20.17;;;17.42;;
44358;SDS011;30077;52.474;13.326;2022-08-26T23:16:57;19.42;;;17.35;;
44358;SDS011;30077;52.474;13.326;2022-08-26T23:21:57;20.27;;;17.13;;
44358;SDS011;30077;52.474;13.326;2022-08-26T23:26:57;23.17;;;17.67;;
44358;SDS011;30077;52.474;13.326;2022-08-26T23:31:58;22.90;;;17.30;;
44358;SDS011;30077;52.474;13.326;2022-08-26T23:36:59;21.50;;;17.63;;
44358;SDS011;30077;52.474;13.326;2022-08-26T23:41:59;22.70;;;17.92;;
44358;SDS011;30077;52.474;13.326;2022-08-26T23:47:00;27.80;;;17.70;;
44358;SDS011;30077;52.474;13.326;2022-08-26T23:52:02;22.02;;;17.42;;
44358;SDS011;30077;52.474;13.326;2022-08-26T23:57:23;23.85;;;18.92;;
